Terminal Aerodrome Forecast
Issued by NWS Blacksburg, VA

Home | Current Version | Previous Version | Text Only | Print | Product List | Glossary On
Versions: 1 2 3 4 5 6 7 8 9 10 11 12 13 14 15 16 17 18 19 20 21 22 23 24 25
000
FTUS41 KRNK 280520
TAFLYH
TAF
KLYH 280520Z 2806/2906 17004KT P6SM SCT050 BKN100
     FM281600 23004KT P6SM -RA OVC045
     FM282100 VRB03KT 5SM -RA BR SCT015 OVC025
     FM290100 00000KT 3SM -RA BR SCT005 OVC015=

USA.gov is the U.S. government's official web portal to all federal, state and local government web resources and services.